ADDS METAR Data INFO
IDs: Format: Raw Decoded Include TAF

Data at: 0212 UTC 19 Jul 2018

KTFP 190155Z AUTO 19011KT 10SM CLR 29/26 A2992 RMK AO2 T02890255 PNO
KTFP 190135Z AUTO 19013G18KT 10SM CLR 29/25 A2991 RMK AO2 T02910254 PNO
KTFP 190115Z AUTO 19013G16KT 10SM CLR 29/26 A2991 RMK AO2 T02940255 PNO
KTFP 190055Z AUTO 19014KT 10SM CLR 30/26 A2991 RMK AO2 T02960255 PNO
KTFP 190035Z AUTO 19012KT 10SM CLR 30/25 A2991 RMK AO2 T02990254 PNO
KTFP 190015Z AUTO 18013G18KT 10SM CLR 31/25 A2991 RMK AO2 T03060254 PNO
KTFP 182355Z AUTO 18016KT 10SM CLR 31/26 A2991 RMK AO2 T03100255 PNO
KTFP 182335Z AUTO 18016KT 10SM CLR 31/25 A2991 RMK AO2 T03090253 PNO
KTFP 182315Z AUTO 19014G18KT 10SM CLR 32/26 A2991 RMK AO2 T03150255 PNO
KTFP 182255Z AUTO 19015KT 10SM CLR 32/26 A2991 RMK AO2 T03180256 PNO
KTFP 182235Z AUTO 18013KT 10SM CLR 32/26 A2991 RMK AO2 T03210255 PNO
KTFP 182215Z AUTO 17014G19KT 10SM CLR 32/26 A2992 RMK AO2 T03220255 PNO
KTFP 182155Z AUTO 18014KT 10SM CLR 33/26 A2993 RMK AO2 T03250256 PNO
KTFP 182135Z AUTO 18014KT 10SM CLR 33/26 A2993 RMK AO2 T03260256 PNO
KTFP 182115Z AUTO 19014G18KT 10SM CLR 33/26 A2994 RMK AO2 T03280255 PNO
KTFP 182055Z AUTO 17014G17KT 10SM CLR 33/25 A2994 RMK AO2 T03290254 PNO
KTFP 182035Z AUTO 19011KT 10SM CLR 33/25 A2995 RMK AO2 T03280253 PNO
KTFP 182015Z AUTO 18012KT 10SM CLR 33/25 A2995 RMK AO2 T03290254 PNO
KTFP 181955Z AUTO 17014KT 10SM CLR 33/25 A2996 RMK AO2 T03280254 PNO
KTFP 181935Z AUTO 17014KT 10SM SCT023 33/25 A2997 RMK AO2 T03300253 PNO
KTFP 181915Z AUTO 18011G15KT 10SM CLR 33/25 A2997 RMK AO2 T03280251 PNO
KTFP 181855Z AUTO 18012G15KT 10SM SCT023 33/25 A2998 RMK AO2 T03250252 PNO
KTFP 181835Z AUTO 20012G16KT 10SM SCT024 33/25 A2999 RMK AO2 T03260252 PNO
KTFP 181815Z AUTO 18013KT 10SM SCT024 33/25 A2999 RMK AO2 T03250251 PNO
KTFP 181755Z AUTO 20007KT 10SM SCT024 33/25 A2999 RMK AO2 T03260251 PNO
KTFP 181735Z AUTO 19010G15KT 10SM SCT022 32/25 A3000 RMK AO2 T03220249 PNO
KTFP 181715Z AUTO 22009G17KT 10SM SCT022 32/25 A3000 RMK AO2 T03230248 PNO
KTFP 181655Z AUTO 21009KT 10SM SCT020 32/25 A3000 RMK AO2 T03200249 PNO
KTFP 181635Z AUTO 20010KT 10SM BKN020 32/25 A3000 RMK AO2 T03180249 PNO
KTFP 181615Z AUTO 20012G15KT 10SM SCT020 32/25 A3001 RMK AO2 T03150245 PNO
KTFP 181555Z AUTO 22009G15KT 10SM SCT020 31/25 A3002 RMK AO2 T03090246 PNO
KTFP 181535Z AUTO 23009KT 10SM SCT020 31/25 A3002 RMK AO2 T03050246 PNO
KTFP 181515Z AUTO 22011KT 10SM BKN020 31/25 A3002 RMK AO2 T03060246 PNO
KTFP 181455Z AUTO 20011KT 10SM BKN018 31/25 A3003 RMK AO2 T03050247 PNO
KTFP 181435Z AUTO 22014G18KT 10SM BKN016 30/25 A3003 RMK AO2 T03020247 PNO
KTFP 181415Z AUTO 22012G18KT 10SM SCT016 30/25 A3003 RMK AO2 T02980246 PNO
KTFP 181355Z AUTO 23013KT 10SM SCT016 29/25 A3003 RMK AO2 T02940247 PNO
KTFP 181335Z AUTO 21010KT 10SM SCT016 29/25 A3004 RMK AO2 T02910246 PNO
KTFP 181315Z AUTO 22008KT 10SM SCT016 29/25 A3003 RMK AO2 T02900247 PNO
KTFP 181255Z AUTO 21008KT 10SM SCT016 SCT021 29/25 A3003 RMK AO2 T02850248 PNO
KTFP 181235Z AUTO 22006KT 10SM SCT017 SCT021 28/25 A3003 RMK AO2 T02800246 PNO
KTFP 181215Z AUTO 21006KT 10SM BKN015 BKN020 28/25 A3003 RMK AO2 T02770246 PNO
KTFP 181155Z AUTO 22005KT 10SM SCT016 BKN021 28/25 A3002 RMK AO2 T02750245 PNO
KTFP 181135Z AUTO 21006KT 10SM SCT015 BKN020 28/25 A3002 RMK AO2 T02750247 PNO
KTFP 181115Z AUTO 22005KT 10SM BKN013 BKN021 BKN026 28/25 A3002 RMK AO2 T02750250 PNO
KTFP 181055Z AUTO 23005KT 10SM SCT015 BKN021 28/25 A3002 RMK AO2 T02760251 PNO
KTFP 181035Z AUTO 24006KT 10SM SCT015 BKN023 28/25 A3002 RMK AO2 T02790251 PNO
KTFP 181015Z AUTO 23007KT 10SM SCT016 BKN023 28/25 A3001 RMK AO2 T02810251 PNO
KTFP 180955Z AUTO 22010KT 10SM BKN016 BKN021 28/25 A3001 RMK AO2 T02810251 PNO
KTFP 180935Z AUTO 22010KT 10SM BKN016 28/25 A3001 RMK AO2 T02810251 PNO
KTFP 180915Z AUTO 22012KT 10SM SCT016 SCT022 28/25 A3001 RMK AO2 T02820251 PNO
KTFP 180855Z AUTO 21009KT 10SM SCT016 28/25 A3001 RMK AO2 T02820249 PNO
KTFP 180835Z AUTO 21012KT 10SM SCT023 28/25 A3001 RMK AO2 T02820249 PNO
KTFP 180815Z AUTO 22008KT 10SM SCT017 SCT023 28/25 A3000 RMK AO2 T02820251 PNO
KTFP 180755Z AUTO 21007KT 10SM BKN017 BKN023 28/25 A3001 RMK AO2 T02830251 PNO
KTFP 180735Z AUTO 21007KT 10SM SCT018 SCT025 28/25 A3001 RMK AO2 T02840250 PNO
KTFP 180715Z AUTO 22012G15KT 10SM SCT015 SCT023 28/25 A3001 RMK AO2 T02840253 PNO
KTFP 180655Z AUTO 21008KT 10SM SCT015 SCT023 28/26 A3001 RMK AO2 T02830255 PNO
KTFP 180635Z AUTO 20009KT 10SM SCT015 28/25 A3001 RMK AO2 T02820254 PNO
KTFP 180615Z AUTO 20008KT 10SM CLR 28/25 A3001 RMK AO2 T02820253 PNO
KTFP 180555Z AUTO 20010KT 10SM SCT013 28/26 A3001 RMK AO2 T02830256 PNO
KTFP 180535Z AUTO 20007KT 10SM SCT015 28/26 A3002 RMK AO2 T02840256 PNO
KTFP 180515Z AUTO 20008KT 10SM SCT015 28/26 A3002 RMK AO2 T02840256 PNO
KTFP 180455Z AUTO 20007KT 10SM SCT015 28/26 A3001 RMK AO2 T02840255 PNO
KTFP 180435Z AUTO 20010KT 10SM SCT015 28/25 A3001 RMK AO2 T02840254 PNO
KTFP 180415Z AUTO 20009G14KT 10SM SCT017 29/25 A3002 RMK AO2 T02850254 PNO
KTFP 180355Z AUTO 20008KT 10SM CLR 29/25 A3002 RMK AO2 T02850253 PNO
KTFP 180335Z AUTO 19009KT 10SM CLR 29/25 A3001 RMK AO2 T02850253 PNO
KTFP 180315Z AUTO 18010G15KT 10SM CLR 29/25 A3001 RMK AO2 T02850252 PNO
KTFP 180255Z AUTO 18008KT 10SM CLR 29/25 A3000 RMK AO2 T02850252 PNO
KTFP 180235Z AUTO 19010G14KT 10SM CLR 29/25 A3000 RMK AO2 T02850252 PNO
KTFP 180215Z AUTO 18008G14KT 10SM CLR 29/25 A3000 RMK AO2 T02870251 PNO
KTFP 180155Z AUTO 18012KT 10SM CLR 29/25 A3000 RMK AO2 T02880248 PNO
KTFP 180135Z AUTO 18011KT 10SM CLR 29/25 A3000 RMK AO2 T02900247 PNO
KTFP 180115Z AUTO 18012G16KT 10SM CLR 29/25 A2999 RMK AO2 T02940250 PNO
KTFP 180055Z AUTO 18014KT 10SM CLR 30/25 A2999 RMK AO2 T02980250 PNO
KTFP 180035Z AUTO 18014G17KT 10SM CLR 30/25 A2999 RMK AO2 T03030251 PNO
KTFP 180015Z AUTO 18012KT 10SM CLR 31/25 A2999 RMK AO2 T03070251 PNO
KTFP 172355Z AUTO 17013KT 10SM CLR 31/25 A3000 RMK AO2 T03100251 PNO
KTFP 172335Z AUTO 17014KT 10SM CLR 31/25 A3000 RMK AO2 T03120251 PNO
KTFP 172315Z AUTO 18014KT 10SM CLR 32/25 A3000 RMK AO2 T03150251 PNO
KTFP 172255Z AUTO 17014KT 10SM CLR 32/25 A3001 RMK AO2 T03160251 PNO
KTFP 172235Z AUTO 17014KT 10SM CLR 32/25 A3001 RMK AO2 T03180250 PNO
KTFP 172215Z AUTO 17014KT 10SM CLR 32/25 A3001 RMK AO2 T03200251 PNO
KTFP 172155Z AUTO 16013KT 10SM CLR 32/25 A3001 RMK AO2 T03220249 PNO
KTFP 172135Z AUTO 18010KT 10SM CLR 32/25 A3002 RMK AO2 T03240248 PNO
KTFP 172115Z AUTO 17010KT 10SM CLR 32/25 A3002 RMK AO2 T03230247 PNO
KTFP 172055Z AUTO 18013G18KT 10SM CLR 32/25 A3002 RMK AO2 T03230245 PNO
KTFP 172035Z AUTO 17012KT 10SM CLR 32/25 A3003 RMK AO2 T03240246 PNO
KTFP 172015Z AUTO 16011G14KT 10SM CLR 33/25 A3003 RMK AO2 T03260246 PNO
KTFP 171955Z AUTO 18011KT 10SM CLR 33/24 A3004 RMK AO2 T03270244 PNO
KTFP 171935Z AUTO 18011G16KT 10SM SCT025 33/24 A3005 RMK AO2 T03280243 PNO
KTFP 171915Z AUTO 18011KT 10SM CLR 33/24 A3005 RMK AO2 T03260243 PNO
KTFP 171855Z AUTO 17011G17KT 10SM CLR 33/24 A3005 RMK AO2 T03260242 PNO
KTFP 171835Z AUTO 18011G14KT 10SM CLR 33/24 A3005 RMK AO2 T03270241 PNO
KTFP 171815Z AUTO 18009G16KT 10SM CLR 33/24 A3006 RMK AO2 T03280238 PNO
KTFP 171755Z AUTO 20009G14KT 10SM CLR 33/24 A3006 RMK AO2 T03290236 PNO
KTFP 171735Z AUTO 20008KT 10SM CLR 33/24 A3006 RMK AO2 T03250235 PNO
KTFP 171715Z AUTO 19005G15KT 10SM SCT029 32/24 A3007 RMK AO2 T03230236 PNO
KTFP 171655Z AUTO 19009KT 180V240 10SM SCT027 32/24 A3007 RMK AO2 T03210238 PNO
KTFP 171635Z AUTO 23008KT 10SM BKN025 32/25 A3007 RMK AO2 T03150245 PNO
KTFP 171615Z AUTO 18007KT 10SM SCT025 32/24 A3007 RMK AO2 T03150240 PNO
KTFP 171555Z AUTO 20006KT 10SM CLR 32/24 A3007 RMK AO2 T03150240 PNO
KTFP 171535Z AUTO 22009KT 10SM CLR 31/24 A3007 RMK AO2 T03120238 PNO
KTFP 171515Z AUTO 22009KT 10SM SCT022 31/25 A3007 RMK AO2 T03110245 PNO
KTFP 171455Z AUTO 22008KT 10SM SCT020 SCT025 31/25 A3007 RMK AO2 T03090248 PNO
KTFP 171435Z AUTO 21007KT 10SM SCT018 SCT024 30/25 A3007 RMK AO2 T03020249 PNO
KTFP 171415Z AUTO 22008KT 10SM SCT016 30/25 A3007 RMK AO2 T02980250 PNO